sensor_id;sensor_type;location;lat;lon;timestamp;P1;durP1;ratioP1;P2;durP2;ratioP2
73632;SDS011;61927;50.080;14.418;2024-03-23T00:53:47;15.32;;;10.40;;
73632;SDS011;61927;50.080;14.418;2024-03-23T00:56:12;16.75;;;10.43;;
73632;SDS011;61927;50.080;14.418;2024-03-23T00:58:38;19.42;;;10.48;;
73632;SDS011;61927;50.080;14.418;2024-03-23T01:01:03;16.00;;;10.73;;
73632;SDS011;61927;50.080;14.418;2024-03-23T01:03:30;15.30;;;10.27;;
73632;SDS011;61927;50.080;14.418;2024-03-23T01:05:59;30.40;;;19.50;;
73632;SDS011;61927;50.080;14.418;2024-03-23T01:08:28;16.77;;;10.10;;
73632;SDS011;61927;50.080;14.418;2024-03-23T01:10:57;13.63;;;9.23;;
73632;SDS011;61927;50.080;14.418;2024-03-23T01:13:25;13.93;;;9.88;;
73632;SDS011;61927;50.080;14.418;2024-03-23T01:15:51;19.38;;;10.15;;
73632;SDS011;61927;50.080;14.418;2024-03-23T01:18:18;14.23;;;9.80;;
73632;SDS011;61927;50.080;14.418;2024-03-23T01:20:44;15.15;;;9.27;;
73632;SDS011;61927;50.080;14.418;2024-03-23T01:23:10;17.15;;;9.73;;
73632;SDS011;61927;50.080;14.418;2024-03-23T01:25:36;15.18;;;11.30;;
73632;SDS011;61927;50.080;14.418;2024-03-23T01:28:02;14.20;;;8.98;;
73632;SDS011;61927;50.080;14.418;2024-03-23T01:30:28;14.48;;;8.50;;
73632;SDS011;61927;50.080;14.418;2024-03-23T01:32:54;15.45;;;9.02;;
73632;SDS011;61927;50.080;14.418;2024-03-23T01:35:19;16.67;;;8.98;;
73632;SDS011;61927;50.080;14.418;2024-03-23T01:37:45;13.55;;;9.52;;
73632;SDS011;61927;50.080;14.418;2024-03-23T01:40:11;15.93;;;8.85;;
73632;SDS011;61927;50.080;14.418;2024-03-23T01:42:41;19.13;;;9.45;;
73632;SDS011;61927;50.080;14.418;2024-03-23T01:45:09;16.48;;;9.10;;
73632;SDS011;61927;50.080;14.418;2024-03-23T01:47:37;15.88;;;9.10;;
73632;SDS011;61927;50.080;14.418;2024-03-23T01:50:03;16.42;;;9.23;;
73632;SDS011;61927;50.080;14.418;2024-03-23T01:52:29;13.70;;;8.95;;
73632;SDS011;61927;50.080;14.418;2024-03-23T01:54:55;12.13;;;8.77;;
73632;SDS011;61927;50.080;14.418;2024-03-23T01:57:21;17.40;;;9.38;;
73632;SDS011;61927;50.080;14.418;2024-03-23T01:59:47;15.90;;;8.82;;
73632;SDS011;61927;50.080;14.418;2024-03-23T02:02:13;19.00;;;8.48;;
73632;SDS011;61927;50.080;14.418;2024-03-23T02:04:39;11.88;;;8.73;;
73632;SDS011;61927;50.080;14.418;2024-03-23T02:07:07;15.15;;;9.57;;
73632;SDS011;61927;50.080;14.418;2024-03-23T02:09:33;13.95;;;8.90;;
73632;SDS011;61927;50.080;14.418;2024-03-23T02:11:58;11.82;;;8.80;;
73632;SDS011;61927;50.080;14.418;2024-03-23T02:14:27;14.82;;;9.07;;
73632;SDS011;61927;50.080;14.418;2024-03-23T02:16:52;15.32;;;8.60;;
73632;SDS011;61927;50.080;14.418;2024-03-23T02:19:18;14.07;;;8.70;;
73632;SDS011;61927;50.080;14.418;2024-03-23T02:21:44;15.00;;;8.73;;
73632;SDS011;61927;50.080;14.418;2024-03-23T02:24:09;12.98;;;8.50;;
73632;SDS011;61927;50.080;14.418;2024-03-23T02:26:35;15.05;;;8.48;;
73632;SDS011;61927;50.080;14.418;2024-03-23T02:29:01;13.32;;;8.38;;
73632;SDS011;61927;50.080;14.418;2024-03-23T02:31:26;14.27;;;8.50;;
73632;SDS011;61927;50.080;14.418;2024-03-23T02:33:52;12.65;;;8.32;;
73632;SDS011;61927;50.080;14.418;2024-03-23T02:36:18;16.25;;;8.07;;
73632;SDS011;61927;50.080;14.418;2024-03-23T02:38:44;16.35;;;8.23;;
73632;SDS011;61927;50.080;14.418;2024-03-23T02:41:10;20.52;;;8.88;;
73632;SDS011;61927;50.080;14.418;2024-03-23T02:43:35;11.00;;;7.47;;
73632;SDS011;61927;50.080;14.418;2024-03-23T02:46:01;14.45;;;8.75;;
73632;SDS011;61927;50.080;14.418;2024-03-23T02:48:28;11.43;;;8.02;;
73632;SDS011;61927;50.080;14.418;2024-03-23T02:50:53;11.90;;;7.95;;
73632;SDS011;61927;50.080;14.418;2024-03-23T02:53:19;36.78;;;27.30;;
73632;SDS011;61927;50.080;14.418;2024-03-23T02:55:45;17.05;;;9.20;;
73632;SDS011;61927;50.080;14.418;2024-03-23T02:58:10;16.15;;;8.98;;
73632;SDS011;61927;50.080;14.418;2024-03-23T03:00:36;17.58;;;8.68;;
73632;SDS011;61927;50.080;14.418;2024-03-23T03:03:02;16.58;;;8.40;;
73632;SDS011;61927;50.080;14.418;2024-03-23T03:05:28;12.43;;;8.55;;
73632;SDS011;61927;50.080;14.418;2024-03-23T03:07:54;14.00;;;9.10;;
73632;SDS011;61927;50.080;14.418;2024-03-23T03:10:20;13.70;;;8.40;;
73632;SDS011;61927;50.080;14.418;2024-03-23T03:12:45;14.35;;;9.40;;
73632;SDS011;61927;50.080;14.418;2024-03-23T03:15:11;16.52;;;8.73;;
73632;SDS011;61927;50.080;14.418;2024-03-23T03:17:37;18.30;;;8.75;;
73632;SDS011;61927;50.080;14.418;2024-03-23T03:20:03;14.07;;;8.80;;
73632;SDS011;61927;50.080;14.418;2024-03-23T03:22:30;14.73;;;9.80;;
73632;SDS011;61927;50.080;14.418;2024-03-23T03:24:55;14.10;;;8.18;;
73632;SDS011;61927;50.080;14.418;2024-03-23T03:27:21;14.23;;;8.70;;
73632;SDS011;61927;50.080;14.418;2024-03-23T03:29:47;12.55;;;8.75;;
73632;SDS011;61927;50.080;14.418;2024-03-23T03:32:13;13.55;;;8.82;;
73632;SDS011;61927;50.080;14.418;2024-03-23T03:34:39;12.88;;;8.73;;
73632;SDS011;61927;50.080;14.418;2024-03-23T03:37:04;10.77;;;8.30;;
73632;SDS011;61927;50.080;14.418;2024-03-23T03:39:30;12.77;;;8.45;;
73632;SDS011;61927;50.080;14.418;2024-03-23T03:41:56;19.98;;;9.15;;
73632;SDS011;61927;50.080;14.418;2024-03-23T03:44:22;16.55;;;9.07;;
73632;SDS011;61927;50.080;14.418;2024-03-23T03:46:47;14.32;;;8.63;;
73632;SDS011;61927;50.080;14.418;2024-03-23T03:49:13;15.43;;;8.48;;
73632;SDS011;61927;50.080;14.418;2024-03-23T03:51:38;14.85;;;8.25;;
73632;SDS011;61927;50.080;14.418;2024-03-23T03:54:04;12.35;;;8.00;;
73632;SDS011;61927;50.080;14.418;2024-03-23T03:56:30;20.02;;;8.77;;
73632;SDS011;61927;50.080;14.418;2024-03-23T03:58:55;12.30;;;8.20;;
73632;SDS011;61927;50.080;14.418;2024-03-23T04:01:21;15.23;;;8.75;;
73632;SDS011;61927;50.080;14.418;2024-03-23T04:03:47;13.40;;;8.65;;
73632;SDS011;61927;50.080;14.418;2024-03-23T04:06:18;12.68;;;8.30;;
73632;SDS011;61927;50.080;14.418;2024-03-23T04:08:44;13.10;;;8.25;;
73632;SDS011;61927;50.080;14.418;2024-03-23T04:11:09;13.80;;;8.45;;
73632;SDS011;61927;50.080;14.418;2024-03-23T04:13:35;15.88;;;9.50;;
73632;SDS011;61927;50.080;14.418;2024-03-23T04:16:01;15.63;;;8.82;;
73632;SDS011;61927;50.080;14.418;2024-03-23T04:18:27;16.60;;;7.47;;
73632;SDS011;61927;50.080;14.418;2024-03-23T04:20:52;13.85;;;8.20;;
73632;SDS011;61927;50.080;14.418;2024-03-23T04:23:18;9.07;;;7.35;;
73632;SDS011;61927;50.080;14.418;2024-03-23T04:25:44;11.30;;;7.57;;
73632;SDS011;61927;50.080;14.418;2024-03-23T04:28:09;14.00;;;8.30;;
73632;SDS011;61927;50.080;14.418;2024-03-23T04:30:35;16.20;;;8.55;;
73632;SDS011;61927;50.080;14.418;2024-03-23T04:33:00;18.40;;;8.23;;
73632;SDS011;61927;50.080;14.418;2024-03-23T04:35:26;16.02;;;8.63;;
73632;SDS011;61927;50.080;14.418;2024-03-23T04:37:53;20.02;;;8.35;;
73632;SDS011;61927;50.080;14.418;2024-03-23T04:40:19;14.00;;;8.48;;
73632;SDS011;61927;50.080;14.418;2024-03-23T04:42:45;16.05;;;7.88;;
73632;SDS011;61927;50.080;14.418;2024-03-23T04:45:10;12.55;;;7.78;;
73632;SDS011;61927;50.080;14.418;2024-03-23T04:47:37;15.68;;;8.00;;
73632;SDS011;61927;50.080;14.418;2024-03-23T04:50:03;12.02;;;7.78;;
73632;SDS011;61927;50.080;14.418;2024-03-23T04:52:30;12.18;;;7.40;;
73632;SDS011;61927;50.080;14.418;2024-03-23T04:54:56;12.82;;;8.65;;
73632;SDS011;61927;50.080;14.418;2024-03-23T04:57:22;16.52;;;8.38;;
73632;SDS011;61927;50.080;14.418;2024-03-23T04:59:47;13.50;;;7.95;;
73632;SDS011;61927;50.080;14.418;2024-03-23T05:02:14;21.23;;;8.25;;
73632;SDS011;61927;50.080;14.418;2024-03-23T05:04:40;13.23;;;7.97;;
73632;SDS011;61927;50.080;14.418;2024-03-23T05:07:08;13.68;;;8.00;;
73632;SDS011;61927;50.080;14.418;2024-03-23T05:09:33;17.63;;;8.02;;
73632;SDS011;61927;50.080;14.418;2024-03-23T05:11:59;11.85;;;7.70;;
73632;SDS011;61927;50.080;14.418;2024-03-23T05:14:25;14.07;;;8.73;;
73632;SDS011;61927;50.080;14.418;2024-03-23T05:16:52;15.82;;;8.55;;
73632;SDS011;61927;50.080;14.418;2024-03-23T05:19:18;15.52;;;8.20;;
73632;SDS011;61927;50.080;14.418;2024-03-23T05:21:44;11.32;;;7.90;;
73632;SDS011;61927;50.080;14.418;2024-03-23T05:24:09;14.32;;;8.13;;
73632;SDS011;61927;50.080;14.418;2024-03-23T05:26:35;11.00;;;7.65;;
73632;SDS011;61927;50.080;14.418;2024-03-23T05:29:01;11.00;;;7.47;;
73632;SDS011;61927;50.080;14.418;2024-03-23T05:31:28;19.33;;;8.30;;
73632;SDS011;61927;50.080;14.418;2024-03-23T05:33:55;10.75;;;7.72;;
73632;SDS011;61927;50.080;14.418;2024-03-23T05:36:21;12.63;;;7.75;;
73632;SDS011;61927;50.080;14.418;2024-03-23T05:38:47;17.95;;;7.78;;
73632;SDS011;61927;50.080;14.418;2024-03-23T05:41:13;11.23;;;7.22;;
73632;SDS011;61927;50.080;14.418;2024-03-23T05:43:39;10.18;;;7.47;;
73632;SDS011;61927;50.080;14.418;2024-03-23T05:46:05;13.60;;;7.93;;
73632;SDS011;61927;50.080;14.418;2024-03-23T05:48:33;12.85;;;7.03;;
73632;SDS011;61927;50.080;14.418;2024-03-23T05:51:00;12.52;;;7.35;;
73632;SDS011;61927;50.080;14.418;2024-03-23T05:53:26;14.23;;;7.80;;
73632;SDS011;61927;50.080;14.418;2024-03-23T05:55:59;10.43;;;7.53;;
73632;SDS011;61927;50.080;14.418;2024-03-23T05:58:27;9.63;;;7.10;;
73632;SDS011;61927;50.080;14.418;2024-03-23T06:00:56;13.88;;;7.93;;
73632;SDS011;61927;50.080;14.418;2024-03-23T06:03:24;12.50;;;7.88;;
73632;SDS011;61927;50.080;14.418;2024-03-23T06:05:50;11.20;;;7.68;;
73632;SDS011;61927;50.080;14.418;2024-03-23T06:08:15;16.92;;;7.88;;
73632;SDS011;61927;50.080;14.418;2024-03-23T06:10:41;14.50;;;8.30;;
73632;SDS011;61927;50.080;14.418;2024-03-23T06:13:07;14.52;;;7.60;;
73632;SDS011;61927;50.080;14.418;2024-03-23T06:15:33;12.45;;;7.38;;
73632;SDS011;61927;50.080;14.418;2024-03-23T06:18:03;12.25;;;7.68;;
73632;SDS011;61927;50.080;14.418;2024-03-23T06:20:30;24.25;;;7.53;;
73632;SDS011;61927;50.080;14.418;2024-03-23T06:22:55;17.33;;;8.55;;
73632;SDS011;61927;50.080;14.418;2024-03-23T06:25:21;15.70;;;7.53;;
73632;SDS011;61927;50.080;14.418;2024-03-23T06:27:47;24.13;;;8.38;;
73632;SDS011;61927;50.080;14.418;2024-03-23T06:30:12;35.15;;;9.23;;
73632;SDS011;61927;50.080;14.418;2024-03-23T06:32:38;38.17;;;7.72;;
73632;SDS011;61927;50.080;14.418;2024-03-23T06:35:04;13.30;;;7.88;;
73632;SDS011;61927;50.080;14.418;2024-03-23T06:37:36;20.23;;;8.25;;
73632;SDS011;61927;50.080;14.418;2024-03-23T06:40:02;13.93;;;8.18;;
73632;SDS011;61927;50.080;14.418;2024-03-23T06:42:30;24.45;;;7.60;;
73632;SDS011;61927;50.080;14.418;2024-03-23T06:44:55;10.77;;;7.32;;
73632;SDS011;61927;50.080;14.418;2024-03-23T06:47:21;13.90;;;7.32;;
73632;SDS011;61927;50.080;14.418;2024-03-23T06:49:47;11.75;;;7.68;;
73632;SDS011;61927;50.080;14.418;2024-03-23T06:52:12;14.85;;;7.70;;
73632;SDS011;61927;50.080;14.418;2024-03-23T06:54:38;8.60;;;7.25;;
73632;SDS011;61927;50.080;14.418;2024-03-23T06:57:03;18.05;;;8.05;;
73632;SDS011;61927;50.080;14.418;2024-03-23T06:59:31;16.83;;;8.18;;
73632;SDS011;61927;50.080;14.418;2024-03-23T07:01:56;15.60;;;7.57;;
73632;SDS011;61927;50.080;14.418;2024-03-23T07:04:22;14.85;;;7.80;;
73632;SDS011;61927;50.080;14.418;2024-03-23T07:06:47;12.73;;;7.90;;
73632;SDS011;61927;50.080;14.418;2024-03-23T07:09:13;15.75;;;7.65;;
73632;SDS011;61927;50.080;14.418;2024-03-23T07:11:39;16.00;;;8.48;;
73632;SDS011;61927;50.080;14.418;2024-03-23T07:14:04;14.70;;;7.65;;
73632;SDS011;61927;50.080;14.418;2024-03-23T07:16:30;16.70;;;7.50;;
73632;SDS011;61927;50.080;14.418;2024-03-23T07:18:56;16.85;;;7.90;;
73632;SDS011;61927;50.080;14.418;2024-03-23T07:21:21;15.70;;;7.60;;
73632;SDS011;61927;50.080;14.418;2024-03-23T07:23:47;14.32;;;7.28;;
73632;SDS011;61927;50.080;14.418;2024-03-23T07:26:13;23.30;;;7.25;;
73632;SDS011;61927;50.080;14.418;2024-03-23T07:28:39;18.02;;;8.13;;
73632;SDS011;61927;50.080;14.418;2024-03-23T07:31:12;19.92;;;8.65;;
73632;SDS011;61927;50.080;14.418;2024-03-23T07:33:44;17.88;;;7.28;;
73632;SDS011;61927;50.080;14.418;2024-03-23T07:36:10;20.40;;;7.70;;
73632;SDS011;61927;50.080;14.418;2024-03-23T07:38:36;17.02;;;7.70;;
73632;SDS011;61927;50.080;14.418;2024-03-23T07:41:11;25.67;;;9.98;;
73632;SDS011;61927;50.080;14.418;2024-03-23T07:43:42;11.70;;;7.78;;
73632;SDS011;61927;50.080;14.418;2024-03-23T07:46:08;19.83;;;9.07;;
73632;SDS011;61927;50.080;14.418;2024-03-23T07:48:34;27.67;;;7.45;;
73632;SDS011;61927;50.080;14.418;2024-03-23T07:51:18;12.82;;;7.63;;
73632;SDS011;61927;50.080;14.418;2024-03-23T07:53:46;15.07;;;7.30;;
73632;SDS011;61927;50.080;14.418;2024-03-23T07:56:13;13.48;;;7.47;;
73632;SDS011;61927;50.080;14.418;2024-03-23T07:58:44;12.25;;;7.70;;
73632;SDS011;61927;50.080;14.418;2024-03-23T08:01:16;20.13;;;7.38;;
73632;SDS011;61927;50.080;14.418;2024-03-23T08:03:43;14.57;;;6.93;;
73632;SDS011;61927;50.080;14.418;2024-03-23T08:06:10;14.25;;;7.85;;
73632;SDS011;61927;50.080;14.418;2024-03-23T08:08:45;21.38;;;8.02;;
73632;SDS011;61927;50.080;14.418;2024-03-23T08:11:12;15.07;;;6.72;;
73632;SDS011;61927;50.080;14.418;2024-03-23T08:13:39;14.45;;;7.20;;
73632;SDS011;61927;50.080;14.418;2024-03-23T08:16:06;13.02;;;7.13;;
73632;SDS011;61927;50.080;14.418;2024-03-23T08:18:32;15.30;;;6.90;;
73632;SDS011;61927;50.080;14.418;2024-03-23T08:21:01;14.45;;;7.30;;
73632;SDS011;61927;50.080;14.418;2024-03-23T08:23:32;11.40;;;7.10;;
73632;SDS011;61927;50.080;14.418;2024-03-23T08:25:59;8.43;;;5.93;;
73632;SDS011;61927;50.080;14.418;2024-03-23T08:28:26;16.58;;;6.25;;
73632;SDS011;61927;50.080;14.418;2024-03-23T08:31:00;12.25;;;6.00;;
73632;SDS011;61927;50.080;14.418;2024-03-23T08:33:28;9.18;;;6.38;;
73632;SDS011;61927;50.080;14.418;2024-03-23T08:35:57;10.25;;;5.80;;
73632;SDS011;61927;50.080;14.418;2024-03-23T08:38:28;14.10;;;6.25;;
73632;SDS011;61927;50.080;14.418;2024-03-23T08:41:10;10.98;;;5.03;;
73632;SDS011;61927;50.080;14.418;2024-03-23T08:43:40;9.95;;;3.38;;
73632;SDS011;61927;50.080;14.418;2024-03-23T08:46:08;7.43;;;3.70;;
73632;SDS011;61927;50.080;14.418;2024-03-23T08:48:38;11.32;;;3.80;;
73632;SDS011;61927;50.080;14.418;2024-03-23T08:51:05;4.35;;;3.22;;
73632;SDS011;61927;50.080;14.418;2024-03-23T08:53:35;4.03;;;3.03;;
73632;SDS011;61927;50.080;14.418;2024-03-23T08:56:01;14.13;;;3.50;;
73632;SDS011;61927;50.080;14.418;2024-03-23T08:58:29;6.47;;;3.17;;
73632;SDS011;61927;50.080;14.418;2024-03-23T09:01:10;11.63;;;4.07;;
73632;SDS011;61927;50.080;14.418;2024-03-23T09:03:40;10.57;;;3.20;;
73632;SDS011;61927;50.080;14.418;2024-03-23T09:06:10;4.60;;;3.03;;
73632;SDS011;61927;50.080;14.418;2024-03-23T09:08:38;8.02;;;3.15;;
73632;SDS011;61927;50.080;14.418;2024-03-23T09:11:06;6.57;;;3.33;;
73632;SDS011;61927;50.080;14.418;2024-03-23T09:13:36;6.10;;;3.08;;
73632;SDS011;61927;50.080;14.418;2024-03-23T09:16:03;10.80;;;4.70;;
73632;SDS011;61927;50.080;14.418;2024-03-23T09:18:31;7.68;;;3.40;;
73632;SDS011;61927;50.080;14.418;2024-03-23T09:20:58;5.15;;;4.28;;
73632;SDS011;61927;50.080;14.418;2024-03-23T09:23:24;8.18;;;3.60;;
73632;SDS011;61927;50.080;14.418;2024-03-23T09:25:50;6.40;;;3.85;;
73632;SDS011;61927;50.080;14.418;2024-03-23T09:28:16;5.65;;;4.10;;
73632;SDS011;61927;50.080;14.418;2024-03-23T09:30:41;9.82;;;4.15;;
73632;SDS011;61927;50.080;14.418;2024-03-23T09:33:10;9.68;;;3.50;;
73632;SDS011;61927;50.080;14.418;2024-03-23T09:35:37;14.07;;;4.95;;
73632;SDS011;61927;50.080;14.418;2024-03-23T09:38:04;6.32;;;3.70;;
73632;SDS011;61927;50.080;14.418;2024-03-23T09:40:29;8.70;;;4.05;;
73632;SDS011;61927;50.080;14.418;2024-03-23T09:42:55;5.63;;;3.60;;
73632;SDS011;61927;50.080;14.418;2024-03-23T09:45:21;8.52;;;4.38;;
73632;SDS011;61927;50.080;14.418;2024-03-23T09:47:51;5.32;;;3.50;;
73632;SDS011;61927;50.080;14.418;2024-03-23T09:50:20;3.80;;;3.35;;
73632;SDS011;61927;50.080;14.418;2024-03-23T09:52:46;6.25;;;3.30;;
73632;SDS011;61927;50.080;14.418;2024-03-23T09:55:12;3.30;;;3.00;;
73632;SDS011;61927;50.080;14.418;2024-03-23T09:57:37;3.53;;;3.22;;
73632;SDS011;61927;50.080;14.418;2024-03-23T10:00:03;8.82;;;3.72;;
73632;SDS011;61927;50.080;14.418;2024-03-23T10:02:29;5.60;;;4.30;;
73632;SDS011;61927;50.080;14.418;2024-03-23T10:04:58;9.45;;;5.25;;
73632;SDS011;61927;50.080;14.418;2024-03-23T10:07:25;5.43;;;3.88;;
73632;SDS011;61927;50.080;14.418;2024-03-23T10:09:50;3.47;;;3.00;;
73632;SDS011;61927;50.080;14.418;2024-03-23T10:12:18;5.97;;;4.28;;
73632;SDS011;61927;50.080;14.418;2024-03-23T10:14:44;4.85;;;4.03;;
73632;SDS011;61927;50.080;14.418;2024-03-23T10:17:14;4.20;;;2.95;;
73632;SDS011;61927;50.080;14.418;2024-03-23T10:19:44;35.65;;;16.00;;
73632;SDS011;61927;50.080;14.418;2024-03-23T10:22:17;4.50;;;3.80;;
73632;SDS011;61927;50.080;14.418;2024-03-23T10:24:44;5.07;;;3.72;;
73632;SDS011;61927;50.080;14.418;2024-03-23T10:27:17;20.08;;;7.35;;
73632;SDS011;61927;50.080;14.418;2024-03-23T10:29:47;6.05;;;3.80;;
73632;SDS011;61927;50.080;14.418;2024-03-23T10:32:14;6.75;;;4.10;;
73632;SDS011;61927;50.080;14.418;2024-03-23T10:34:41;5.53;;;4.22;;
73632;SDS011;61927;50.080;14.418;2024-03-23T10:37:07;19.38;;;11.23;;
73632;SDS011;61927;50.080;14.418;2024-03-23T10:39:34;4.13;;;3.50;;
73632;SDS011;61927;50.080;14.418;2024-03-23T10:42:02;13.93;;;5.60;;
73632;SDS011;61927;50.080;14.418;2024-03-23T10:44:32;6.05;;;3.88;;
73632;SDS011;61927;50.080;14.418;2024-03-23T10:46:58;5.20;;;4.03;;
73632;SDS011;61927;50.080;14.418;2024-03-23T10:49:32;13.15;;;3.65;;
73632;SDS011;61927;50.080;14.418;2024-03-23T10:51:59;9.48;;;3.58;;
73632;SDS011;61927;50.080;14.418;2024-03-23T10:54:26;17.45;;;4.40;;
73632;SDS011;61927;50.080;14.418;2024-03-23T10:57:14;4.85;;;3.45;;
73632;SDS011;61927;50.080;14.418;2024-03-23T10:59:42;11.52;;;4.03;;
73632;SDS011;61927;50.080;14.418;2024-03-23T11:02:20;13.35;;;4.57;;
73632;SDS011;61927;50.080;14.418;2024-03-23T11:04:47;8.43;;;3.72;;
73632;SDS011;61927;50.080;14.418;2024-03-23T11:09:51;12.27;;;6.25;;
73632;SDS011;61927;50.080;14.418;2024-03-23T11:14:47;3.72;;;3.20;;
73632;SDS011;61927;50.080;14.418;2024-03-23T11:22:56;3.97;;;2.40;;
73632;SDS011;61927;50.080;14.418;2024-03-23T11:25:22;2.65;;;2.45;;
73632;SDS011;61927;50.080;14.418;2024-03-23T11:27:52;11.48;;;7.18;;
73632;SDS011;61927;50.080;14.418;2024-03-23T11:30:21;4.85;;;2.67;;
73632;SDS011;61927;50.080;14.418;2024-03-23T11:32:52;3.22;;;2.50;;
73632;SDS011;61927;50.080;14.418;2024-03-23T11:38:20;2.20;;;2.00;;
73632;SDS011;61927;50.080;14.418;2024-03-23T11:40:49;4.82;;;4.18;;
73632;SDS011;61927;50.080;14.418;2024-03-23T11:43:16;6.45;;;2.60;;
73632;SDS011;61927;50.080;14.418;2024-03-23T11:45:52;8.43;;;3.22;;
73632;SDS011;61927;50.080;14.418;2024-03-23T11:48:19;4.53;;;2.33;;
73632;SDS011;61927;50.080;14.418;2024-03-23T11:50:58;7.07;;;2.85;;
73632;SDS011;61927;50.080;14.418;2024-03-23T11:53:24;7.13;;;2.60;;
73632;SDS011;61927;50.080;14.418;2024-03-23T11:55:54;4.15;;;2.60;;
73632;SDS011;61927;50.080;14.418;2024-03-23T11:58:22;5.22;;;1.98;;
73632;SDS011;61927;50.080;14.418;2024-03-23T12:01:09;4.35;;;1.80;;
73632;SDS011;61927;50.080;14.418;2024-03-23T12:03:35;16.85;;;2.22;;
73632;SDS011;61927;50.080;14.418;2024-03-23T12:06:04;2.38;;;1.60;;
73632;SDS011;61927;50.080;14.418;2024-03-23T12:08:31;6.32;;;1.80;;
73632;SDS011;61927;50.080;14.418;2024-03-23T12:13:38;1.42;;;1.33;;
73632;SDS011;61927;50.080;14.418;2024-03-23T12:16:19;1.20;;;1.20;;
73632;SDS011;61927;50.080;14.418;2024-03-23T12:18:49;1.27;;;1.20;;
73632;SDS011;61927;50.080;14.418;2024-03-23T12:21:16;1.95;;;0.90;;
73632;SDS011;61927;50.080;14.418;2024-03-23T12:23:43;7.57;;;1.10;;
73632;SDS011;61927;50.080;14.418;2024-03-23T12:26:13;4.38;;;1.35;;
73632;SDS011;61927;50.080;14.418;2024-03-23T12:28:39;3.50;;;1.15;;
73632;SDS011;61927;50.080;14.418;2024-03-23T12:31:05;1.30;;;0.68;;
73632;SDS011;61927;50.080;14.418;2024-03-23T12:33:31;2.65;;;0.50;;
73632;SDS011;61927;50.080;14.418;2024-03-23T12:35:57;0.93;;;0.80;;
73632;SDS011;61927;50.080;14.418;2024-03-23T12:38:23;0.70;;;0.70;;
73632;SDS011;61927;50.080;14.418;2024-03-23T12:40:48;2.97;;;1.70;;
73632;SDS011;61927;50.080;14.418;2024-03-23T12:43:15;3.95;;;1.50;;
73632;SDS011;61927;50.080;14.418;2024-03-23T12:45:41;1.05;;;0.60;;
73632;SDS011;61927;50.080;14.418;2024-03-23T12:48:11;1.40;;;1.30;;
73632;SDS011;61927;50.080;14.418;2024-03-23T12:50:36;2.50;;;0.90;;
73632;SDS011;61927;50.080;14.418;2024-03-23T12:53:03;7.55;;;0.70;;
73632;SDS011;61927;50.080;14.418;2024-03-23T12:55:29;0.50;;;0.50;;
73632;SDS011;61927;50.080;14.418;2024-03-23T12:57:55;3.42;;;0.57;;
73632;SDS011;61927;50.080;14.418;2024-03-23T13:00:20;0.98;;;0.63;;
73632;SDS011;61927;50.080;14.418;2024-03-23T13:02:46;0.50;;;0.50;;
73632;SDS011;61927;50.080;14.418;2024-03-23T13:05:11;0.40;;;0.40;;
73632;SDS011;61927;50.080;14.418;2024-03-23T13:07:37;0.95;;;0.57;;
73632;SDS011;61927;50.080;14.418;2024-03-23T13:10:04;6.90;;;0.80;;
73632;SDS011;61927;50.080;14.418;2024-03-23T13:12:31;1.38;;;0.60;;
73632;SDS011;61927;50.080;14.418;2024-03-23T13:14:58;0.85;;;0.52;;
73632;SDS011;61927;50.080;14.418;2024-03-23T13:17:29;11.63;;;0.77;;
73632;SDS011;61927;50.080;14.418;2024-03-23T13:19:54;0.93;;;0.88;;
73632;SDS011;61927;50.080;14.418;2024-03-23T13:22:21;0.55;;;0.50;;
73632;SDS011;61927;50.080;14.418;2024-03-23T13:24:47;1.05;;;0.40;;
73632;SDS011;61927;50.080;14.418;2024-03-23T13:27:16;0.82;;;0.50;;
73632;SDS011;61927;50.080;14.418;2024-03-23T13:29:41;3.42;;;0.40;;
73632;SDS011;61927;50.080;14.418;2024-03-23T13:32:07;0.32;;;0.32;;
73632;SDS011;61927;50.080;14.418;2024-03-23T13:34:33;0.77;;;0.77;;
73632;SDS011;61927;50.080;14.418;2024-03-23T13:37:00;0.65;;;0.40;;
73632;SDS011;61927;50.080;14.418;2024-03-23T13:39:27;2.65;;;0.43;;
73632;SDS011;61927;50.080;14.418;2024-03-23T13:41:53;0.40;;;0.40;;
73632;SDS011;61927;50.080;14.418;2024-03-23T13:44:20;0.70;;;0.70;;
73632;SDS011;61927;50.080;14.418;2024-03-23T13:46:47;0.82;;;0.65;;
73632;SDS011;61927;50.080;14.418;2024-03-23T13:49:18;0.52;;;0.52;;
73632;SDS011;61927;50.080;14.418;2024-03-23T13:51:47;0.40;;;0.40;;
73632;SDS011;61927;50.080;14.418;2024-03-23T13:54:13;3.05;;;1.20;;
73632;SDS011;61927;50.080;14.418;2024-03-23T13:56:39;1.30;;;0.75;;
73632;SDS011;61927;50.080;14.418;2024-03-23T13:59:05;0.45;;;0.45;;
73632;SDS011;61927;50.080;14.418;2024-03-23T14:01:31;0.95;;;0.80;;
73632;SDS011;61927;50.080;14.418;2024-03-23T14:03:57;1.70;;;0.60;;
73632;SDS011;61927;50.080;14.418;2024-03-23T14:06:22;0.75;;;0.75;;
73632;SDS011;61927;50.080;14.418;2024-03-23T14:08:50;0.85;;;0.85;;
73632;SDS011;61927;50.080;14.418;2024-03-23T14:11:18;0.77;;;0.57;;
73632;SDS011;61927;50.080;14.418;2024-03-23T14:13:44;0.60;;;0.60;;
73632;SDS011;61927;50.080;14.418;2024-03-23T14:16:10;0.35;;;0.35;;
73632;SDS011;61927;50.080;14.418;2024-03-23T14:18:35;0.47;;;0.47;;
73632;SDS011;61927;50.080;14.418;2024-03-23T14:21:01;0.70;;;0.70;;
73632;SDS011;61927;50.080;14.418;2024-03-23T14:23:28;1.25;;;0.63;;
73632;SDS011;61927;50.080;14.418;2024-03-23T14:25:58;0.60;;;0.60;;
73632;SDS011;61927;50.080;14.418;2024-03-23T14:28:24;0.75;;;0.75;;
73632;SDS011;61927;50.080;14.418;2024-03-23T14:30:51;0.73;;;0.70;;
73632;SDS011;61927;50.080;14.418;2024-03-23T14:33:17;0.60;;;0.60;;
73632;SDS011;61927;50.080;14.418;2024-03-23T14:35:51;1.65;;;0.90;;
73632;SDS011;61927;50.080;14.418;2024-03-23T14:38:23;1.98;;;0.60;;
73632;SDS011;61927;50.080;14.418;2024-03-23T14:40:50;0.80;;;0.80;;
73632;SDS011;61927;50.080;14.418;2024-03-23T14:43:18;1.08;;;0.80;;
73632;SDS011;61927;50.080;14.418;2024-03-23T14:48:35;1.45;;;1.33;;
73632;SDS011;61927;50.080;14.418;2024-03-23T14:51:01;1.00;;;0.90;;
73632;SDS011;61927;50.080;14.418;2024-03-23T14:53:33;0.60;;;0.60;;
73632;SDS011;61927;50.080;14.418;2024-03-23T14:56:05;3.88;;;0.75;;
73632;SDS011;61927;50.080;14.418;2024-03-23T14:58:34;1.38;;;1.00;;
73632;SDS011;61927;50.080;14.418;2024-03-23T15:01:01;0.98;;;0.88;;
73632;SDS011;61927;50.080;14.418;2024-03-23T15:03:27;1.38;;;0.93;;
73632;SDS011;61927;50.080;14.418;2024-03-23T15:05:54;1.52;;;1.02;;
73632;SDS011;61927;50.080;14.418;2024-03-23T15:08:21;0.98;;;0.80;;
73632;SDS011;61927;50.080;14.418;2024-03-23T15:10:47;1.20;;;1.10;;
73632;SDS011;61927;50.080;14.418;2024-03-23T15:13:13;2.75;;;1.08;;
73632;SDS011;61927;50.080;14.418;2024-03-23T15:15:40;4.22;;;1.48;;
73632;SDS011;61927;50.080;14.418;2024-03-23T15:18:09;4.28;;;1.08;;
73632;SDS011;61927;50.080;14.418;2024-03-23T15:20:38;5.30;;;1.10;;
73632;SDS011;61927;50.080;14.418;2024-03-23T15:23:04;1.50;;;1.10;;
73632;SDS011;61927;50.080;14.418;2024-03-23T15:25:30;2.75;;;1.95;;
73632;SDS011;61927;50.080;14.418;2024-03-23T15:27:57;1.90;;;1.00;;
73632;SDS011;61927;50.080;14.418;2024-03-23T15:30:28;2.78;;;1.30;;
73632;SDS011;61927;50.080;14.418;2024-03-23T15:32:54;1.48;;;1.33;;
73632;SDS011;61927;50.080;14.418;2024-03-23T15:35:20;2.78;;;2.08;;
73632;SDS011;61927;50.080;14.418;2024-03-23T15:37:48;4.30;;;1.55;;